sensor_id;sensor_type;location;lat;lon;timestamp;P1;durP1;ratioP1;P2;durP2;ratioP2
34896;SDS011;43407;51.828;-2.298;2023-04-24T00:02:04;6.70;;;6.10;;
34896;SDS011;43407;51.828;-2.298;2023-04-24T00:04:31;7.70;;;7.00;;
34896;SDS011;43407;51.828;-2.298;2023-04-24T00:06:58;7.70;;;6.13;;
34896;SDS011;43407;51.828;-2.298;2023-04-24T00:09:25;6.80;;;6.03;;
34896;SDS011;43407;51.828;-2.298;2023-04-24T00:11:51;7.15;;;6.55;;
34896;SDS011;43407;51.828;-2.298;2023-04-24T00:14:17;6.72;;;6.10;;
34896;SDS011;43407;51.828;-2.298;2023-04-24T00:16:43;6.55;;;5.55;;
34896;SDS011;43407;51.828;-2.298;2023-04-24T00:19:08;6.50;;;5.60;;
34896;SDS011;43407;51.828;-2.298;2023-04-24T00:21:34;6.72;;;6.07;;
34896;SDS011;43407;51.828;-2.298;2023-04-24T00:24:00;6.85;;;6.25;;
34896;SDS011;43407;51.828;-2.298;2023-04-24T00:26:25;5.95;;;5.38;;
34896;SDS011;43407;51.828;-2.298;2023-04-24T00:28:51;6.38;;;5.78;;
34896;SDS011;43407;51.828;-2.298;2023-04-24T00:31:16;6.07;;;5.20;;
34896;SDS011;43407;51.828;-2.298;2023-04-24T00:33:42;6.10;;;5.50;;
34896;SDS011;43407;51.828;-2.298;2023-04-24T00:36:07;7.10;;;5.30;;
34896;SDS011;43407;51.828;-2.298;2023-04-24T00:38:33;5.20;;;4.63;;
34896;SDS011;43407;51.828;-2.298;2023-04-24T00:40:58;6.60;;;5.65;;
34896;SDS011;43407;51.828;-2.298;2023-04-24T00:43:24;5.72;;;5.22;;
34896;SDS011;43407;51.828;-2.298;2023-04-24T00:45:50;5.82;;;5.30;;
34896;SDS011;43407;51.828;-2.298;2023-04-24T00:48:16;6.97;;;5.25;;
34896;SDS011;43407;51.828;-2.298;2023-04-24T00:50:41;5.45;;;5.00;;
34896;SDS011;43407;51.828;-2.298;2023-04-24T00:53:07;6.75;;;5.35;;
34896;SDS011;43407;51.828;-2.298;2023-04-24T00:55:32;5.65;;;5.15;;
34896;SDS011;43407;51.828;-2.298;2023-04-24T00:57:58;4.63;;;4.22;;
34896;SDS011;43407;51.828;-2.298;2023-04-24T01:00:24;4.93;;;4.53;;
34896;SDS011;43407;51.828;-2.298;2023-04-24T01:02:49;6.47;;;5.53;;
34896;SDS011;43407;51.828;-2.298;2023-04-24T01:05:16;5.88;;;5.28;;
34896;SDS011;43407;51.828;-2.298;2023-04-24T01:07:43;5.53;;;5.07;;
34896;SDS011;43407;51.828;-2.298;2023-04-24T01:10:10;5.65;;;5.15;;
34896;SDS011;43407;51.828;-2.298;2023-04-24T01:12:36;6.07;;;5.47;;
34896;SDS011;43407;51.828;-2.298;2023-04-24T01:15:02;6.13;;;5.53;;
34896;SDS011;43407;51.828;-2.298;2023-04-24T01:17:28;5.85;;;5.25;;
34896;SDS011;43407;51.828;-2.298;2023-04-24T01:19:54;6.22;;;5.70;;
34896;SDS011;43407;51.828;-2.298;2023-04-24T01:22:21;6.00;;;5.50;;
34896;SDS011;43407;51.828;-2.298;2023-04-24T01:24:47;6.30;;;5.80;;
34896;SDS011;43407;51.828;-2.298;2023-04-24T01:27:13;4.97;;;4.50;;
34896;SDS011;43407;51.828;-2.298;2023-04-24T01:29:38;4.93;;;4.50;;
34896;SDS011;43407;51.828;-2.298;2023-04-24T01:32:04;6.78;;;6.18;;
34896;SDS011;43407;51.828;-2.298;2023-04-24T01:34:30;6.18;;;5.47;;
34896;SDS011;43407;51.828;-2.298;2023-04-24T01:36:56;6.43;;;5.82;;
34896;SDS011;43407;51.828;-2.298;2023-04-24T01:39:22;7.55;;;6.82;;
34896;SDS011;43407;51.828;-2.298;2023-04-24T01:41:51;6.88;;;6.28;;
34896;SDS011;43407;51.828;-2.298;2023-04-24T01:44:17;6.72;;;6.15;;
34896;SDS011;43407;51.828;-2.298;2023-04-24T01:46:43;6.55;;;5.93;;
34896;SDS011;43407;51.828;-2.298;2023-04-24T01:49:09;6.53;;;5.93;;
34896;SDS011;43407;51.828;-2.298;2023-04-24T01:51:34;5.82;;;5.25;;
34896;SDS011;43407;51.828;-2.298;2023-04-24T01:54:00;5.15;;;4.75;;
34896;SDS011;43407;51.828;-2.298;2023-04-24T01:56:25;6.60;;;5.72;;
34896;SDS011;43407;51.828;-2.298;2023-04-24T01:58:54;5.97;;;5.38;;
34896;SDS011;43407;51.828;-2.298;2023-04-24T02:01:20;6.20;;;5.60;;
34896;SDS011;43407;51.828;-2.298;2023-04-24T02:03:46;7.32;;;6.35;;
34896;SDS011;43407;51.828;-2.298;2023-04-24T02:06:11;6.78;;;6.07;;
34896;SDS011;43407;51.828;-2.298;2023-04-24T02:08:37;6.55;;;5.95;;
34896;SDS011;43407;51.828;-2.298;2023-04-24T02:11:02;6.43;;;5.82;;
34896;SDS011;43407;51.828;-2.298;2023-04-24T02:13:28;7.72;;;6.32;;
34896;SDS011;43407;51.828;-2.298;2023-04-24T02:15:53;6.32;;;5.70;;
34896;SDS011;43407;51.828;-2.298;2023-04-24T02:18:19;5.45;;;4.95;;
34896;SDS011;43407;51.828;-2.298;2023-04-24T02:20:45;6.32;;;5.47;;
34896;SDS011;43407;51.828;-2.298;2023-04-24T02:23:10;5.43;;;4.93;;
34896;SDS011;43407;51.828;-2.298;2023-04-24T02:25:36;8.50;;;5.60;;
34896;SDS011;43407;51.828;-2.298;2023-04-24T02:28:02;6.43;;;5.85;;
34896;SDS011;43407;51.828;-2.298;2023-04-24T02:30:28;5.68;;;5.05;;
34896;SDS011;43407;51.828;-2.298;2023-04-24T02:32:53;5.95;;;5.43;;
34896;SDS011;43407;51.828;-2.298;2023-04-24T02:35:20;7.75;;;7.07;;
34896;SDS011;43407;51.828;-2.298;2023-04-24T02:37:45;8.48;;;7.53;;
34896;SDS011;43407;51.828;-2.298;2023-04-24T02:40:11;7.47;;;6.63;;
34896;SDS011;43407;51.828;-2.298;2023-04-24T02:42:36;7.43;;;6.70;;
34896;SDS011;43407;51.828;-2.298;2023-04-24T02:45:02;7.80;;;7.07;;
34896;SDS011;43407;51.828;-2.298;2023-04-24T02:47:28;7.95;;;6.65;;
34896;SDS011;43407;51.828;-2.298;2023-04-24T02:49:54;8.20;;;7.25;;
34896;SDS011;43407;51.828;-2.298;2023-04-24T02:52:19;7.60;;;6.82;;
34896;SDS011;43407;51.828;-2.298;2023-04-24T02:54:45;8.25;;;6.90;;
34896;SDS011;43407;51.828;-2.298;2023-04-24T02:57:10;8.23;;;6.90;;
34896;SDS011;43407;51.828;-2.298;2023-04-24T02:59:36;7.35;;;6.60;;
34896;SDS011;43407;51.828;-2.298;2023-04-24T03:02:01;6.15;;;5.30;;
34896;SDS011;43407;51.828;-2.298;2023-04-24T03:04:27;5.80;;;5.22;;
34896;SDS011;43407;51.828;-2.298;2023-04-24T03:06:52;5.78;;;5.22;;
34896;SDS011;43407;51.828;-2.298;2023-04-24T03:09:20;4.90;;;4.50;;
34896;SDS011;43407;51.828;-2.298;2023-04-24T03:11:48;8.95;;;6.03;;
34896;SDS011;43407;51.828;-2.298;2023-04-24T03:14:14;8.32;;;6.18;;
34896;SDS011;43407;51.828;-2.298;2023-04-24T03:16:40;5.88;;;5.38;;
34896;SDS011;43407;51.828;-2.298;2023-04-24T03:19:06;6.10;;;5.55;;
34896;SDS011;43407;51.828;-2.298;2023-04-24T03:21:31;6.13;;;5.50;;
34896;SDS011;43407;51.828;-2.298;2023-04-24T03:23:57;6.45;;;5.85;;
34896;SDS011;43407;51.828;-2.298;2023-04-24T03:26:23;5.50;;;5.00;;
34896;SDS011;43407;51.828;-2.298;2023-04-24T03:28:48;5.93;;;5.32;;
34896;SDS011;43407;51.828;-2.298;2023-04-24T03:31:14;6.22;;;5.00;;
34896;SDS011;43407;51.828;-2.298;2023-04-24T03:33:40;6.20;;;5.60;;
34896;SDS011;43407;51.828;-2.298;2023-04-24T03:36:06;6.18;;;5.57;;
34896;SDS011;43407;51.828;-2.298;2023-04-24T03:38:32;5.45;;;4.95;;
34896;SDS011;43407;51.828;-2.298;2023-04-24T03:40:57;5.68;;;5.10;;
34896;SDS011;43407;51.828;-2.298;2023-04-24T03:43:23;5.47;;;4.93;;
34896;SDS011;43407;51.828;-2.298;2023-04-24T03:45:48;5.47;;;4.97;;
34896;SDS011;43407;51.828;-2.298;2023-04-24T03:48:14;4.90;;;4.50;;
34896;SDS011;43407;51.828;-2.298;2023-04-24T03:50:39;4.72;;;4.28;;
34896;SDS011;43407;51.828;-2.298;2023-04-24T03:53:05;5.57;;;5.10;;
34896;SDS011;43407;51.828;-2.298;2023-04-24T03:55:31;6.80;;;5.82;;
34896;SDS011;43407;51.828;-2.298;2023-04-24T03:57:56;4.93;;;4.32;;
34896;SDS011;43407;51.828;-2.298;2023-04-24T04:00:22;5.80;;;5.30;;
34896;SDS011;43407;51.828;-2.298;2023-04-24T04:02:47;6.00;;;5.50;;
34896;SDS011;43407;51.828;-2.298;2023-04-24T04:05:13;5.93;;;5.43;;
34896;SDS011;43407;51.828;-2.298;2023-04-24T04:07:38;6.40;;;5.90;;
34896;SDS011;43407;51.828;-2.298;2023-04-24T04:10:04;5.90;;;4.90;;
34896;SDS011;43407;51.828;-2.298;2023-04-24T04:12:32;5.85;;;5.25;;
34896;SDS011;43407;51.828;-2.298;2023-04-24T04:14:57;5.20;;;4.80;;
34896;SDS011;43407;51.828;-2.298;2023-04-24T04:17:23;5.97;;;5.35;;
34896;SDS011;43407;51.828;-2.298;2023-04-24T04:19:48;5.28;;;4.85;;
34896;SDS011;43407;51.828;-2.298;2023-04-24T04:22:14;6.13;;;5.60;;
34896;SDS011;43407;51.828;-2.298;2023-04-24T04:24:39;6.38;;;5.30;;
34896;SDS011;43407;51.828;-2.298;2023-04-24T04:27:05;5.47;;;4.97;;
34896;SDS011;43407;51.828;-2.298;2023-04-24T04:29:31;5.63;;;5.13;;
34896;SDS011;43407;51.828;-2.298;2023-04-24T04:31:57;5.53;;;4.70;;
34896;SDS011;43407;51.828;-2.298;2023-04-24T04:34:23;4.82;;;4.43;;
34896;SDS011;43407;51.828;-2.298;2023-04-24T04:36:49;5.05;;;4.65;;
34896;SDS011;43407;51.828;-2.298;2023-04-24T04:39:15;4.82;;;4.43;;
34896;SDS011;43407;51.828;-2.298;2023-04-24T04:41:41;5.38;;;4.95;;
34896;SDS011;43407;51.828;-2.298;2023-04-24T04:44:07;6.40;;;5.80;;
34896;SDS011;43407;51.828;-2.298;2023-04-24T04:46:33;6.35;;;5.75;;
34896;SDS011;43407;51.828;-2.298;2023-04-24T04:48:59;8.93;;;5.90;;
34896;SDS011;43407;51.828;-2.298;2023-04-24T04:51:26;6.07;;;5.55;;
34896;SDS011;43407;51.828;-2.298;2023-04-24T04:53:52;6.15;;;5.43;;
34896;SDS011;43407;51.828;-2.298;2023-04-24T04:56:17;5.82;;;5.32;;
34896;SDS011;43407;51.828;-2.298;2023-04-24T04:58:43;5.78;;;4.60;;
34896;SDS011;43407;51.828;-2.298;2023-04-24T05:01:09;5.38;;;4.85;;
34896;SDS011;43407;51.828;-2.298;2023-04-24T05:03:35;5.68;;;5.18;;
34896;SDS011;43407;51.828;-2.298;2023-04-24T05:06:01;5.45;;;4.90;;
34896;SDS011;43407;51.828;-2.298;2023-04-24T05:08:27;3.72;;;3.42;;
34896;SDS011;43407;51.828;-2.298;2023-04-24T05:10:52;5.30;;;4.90;;
34896;SDS011;43407;51.828;-2.298;2023-04-24T05:13:18;5.78;;;4.97;;
34896;SDS011;43407;51.828;-2.298;2023-04-24T05:15:44;4.63;;;4.20;;
34896;SDS011;43407;51.828;-2.298;2023-04-24T05:18:09;5.45;;;5.03;;
34896;SDS011;43407;51.828;-2.298;2023-04-24T05:20:35;6.53;;;5.93;;
34896;SDS011;43407;51.828;-2.298;2023-04-24T05:23:00;7.13;;;5.47;;
34896;SDS011;43407;51.828;-2.298;2023-04-24T05:25:26;5.93;;;4.57;;
34896;SDS011;43407;51.828;-2.298;2023-04-24T05:27:52;6.28;;;5.68;;
34896;SDS011;43407;51.828;-2.298;2023-04-24T05:30:18;6.13;;;5.63;;
34896;SDS011;43407;51.828;-2.298;2023-04-24T05:32:44;6.55;;;5.95;;
34896;SDS011;43407;51.828;-2.298;2023-04-24T05:35:10;6.90;;;6.20;;
34896;SDS011;43407;51.828;-2.298;2023-04-24T05:37:36;6.63;;;6.03;;
34896;SDS011;43407;51.828;-2.298;2023-04-24T05:40:01;6.10;;;5.60;;
34896;SDS011;43407;51.828;-2.298;2023-04-24T05:42:29;6.15;;;5.55;;
34896;SDS011;43407;51.828;-2.298;2023-04-24T05:44:54;6.40;;;5.75;;
34896;SDS011;43407;51.828;-2.298;2023-04-24T05:47:20;7.65;;;5.85;;
34896;SDS011;43407;51.828;-2.298;2023-04-24T05:49:47;6.03;;;5.43;;
34896;SDS011;43407;51.828;-2.298;2023-04-24T05:52:12;6.70;;;5.70;;
34896;SDS011;43407;51.828;-2.298;2023-04-24T05:54:38;7.63;;;5.65;;
34896;SDS011;43407;51.828;-2.298;2023-04-24T05:57:04;6.45;;;5.85;;
34896;SDS011;43407;51.828;-2.298;2023-04-24T05:59:32;6.47;;;5.78;;
34896;SDS011;43407;51.828;-2.298;2023-04-24T06:02:04;6.38;;;5.47;;
34896;SDS011;43407;51.828;-2.298;2023-04-24T06:04:30;5.25;;;4.80;;
34896;SDS011;43407;51.828;-2.298;2023-04-24T06:06:56;5.72;;;5.22;;
34896;SDS011;43407;51.828;-2.298;2023-04-24T06:09:22;6.75;;;5.60;;
34896;SDS011;43407;51.828;-2.298;2023-04-24T06:11:48;6.70;;;6.07;;
34896;SDS011;43407;51.828;-2.298;2023-04-24T06:14:14;7.22;;;5.75;;
34896;SDS011;43407;51.828;-2.298;2023-04-24T06:16:41;6.32;;;5.70;;
34896;SDS011;43407;51.828;-2.298;2023-04-24T06:19:07;5.05;;;4.60;;
34896;SDS011;43407;51.828;-2.298;2023-04-24T06:21:33;28.00;;;6.55;;
34896;SDS011;43407;51.828;-2.298;2023-04-24T06:23:58;6.43;;;5.75;;
34896;SDS011;43407;51.828;-2.298;2023-04-24T06:26:24;59.13;;;8.43;;
34896;SDS011;43407;51.828;-2.298;2023-04-24T06:28:51;6.97;;;6.35;;
34896;SDS011;43407;51.828;-2.298;2023-04-24T06:31:18;6.75;;;6.10;;
34896;SDS011;43407;51.828;-2.298;2023-04-24T06:33:45;6.50;;;5.90;;
34896;SDS011;43407;51.828;-2.298;2023-04-24T06:36:12;7.47;;;6.78;;
34896;SDS011;43407;51.828;-2.298;2023-04-24T06:38:37;6.95;;;6.28;;
34896;SDS011;43407;51.828;-2.298;2023-04-24T06:41:03;7.05;;;6.45;;
34896;SDS011;43407;51.828;-2.298;2023-04-24T06:43:30;6.35;;;5.75;;
34896;SDS011;43407;51.828;-2.298;2023-04-24T06:45:59;7.53;;;5.68;;
34896;SDS011;43407;51.828;-2.298;2023-04-24T06:48:24;4.95;;;4.55;;
34896;SDS011;43407;51.828;-2.298;2023-04-24T06:50:50;5.45;;;5.03;;
34896;SDS011;43407;51.828;-2.298;2023-04-24T06:53:16;6.50;;;5.80;;
34896;SDS011;43407;51.828;-2.298;2023-04-24T06:55:42;6.43;;;5.65;;
34896;SDS011;43407;51.828;-2.298;2023-04-24T06:58:09;8.35;;;6.40;;
34896;SDS011;43407;51.828;-2.298;2023-04-24T07:00:36;8.20;;;6.32;;
34896;SDS011;43407;51.828;-2.298;2023-04-24T07:03:01;8.43;;;7.40;;
34896;SDS011;43407;51.828;-2.298;2023-04-24T07:05:27;8.18;;;7.38;;
34896;SDS011;43407;51.828;-2.298;2023-04-24T07:07:53;7.95;;;6.90;;
34896;SDS011;43407;51.828;-2.298;2023-04-24T07:10:18;8.40;;;6.97;;
34896;SDS011;43407;51.828;-2.298;2023-04-24T07:12:45;7.90;;;6.75;;
34896;SDS011;43407;51.828;-2.298;2023-04-24T07:15:11;6.70;;;6.10;;
34896;SDS011;43407;51.828;-2.298;2023-04-24T07:17:37;7.75;;;6.90;;
34896;SDS011;43407;51.828;-2.298;2023-04-24T07:20:03;7.20;;;6.50;;
34896;SDS011;43407;51.828;-2.298;2023-04-24T07:22:30;7.50;;;6.80;;
34896;SDS011;43407;51.828;-2.298;2023-04-24T07:24:56;6.70;;;6.10;;
34896;SDS011;43407;51.828;-2.298;2023-04-24T07:27:21;6.18;;;5.68;;
34896;SDS011;43407;51.828;-2.298;2023-04-24T07:29:47;11.15;;;5.15;;
34896;SDS011;43407;51.828;-2.298;2023-04-24T07:32:13;5.55;;;5.00;;
34896;SDS011;43407;51.828;-2.298;2023-04-24T07:34:38;5.32;;;4.82;;
34896;SDS011;43407;51.828;-2.298;2023-04-24T07:37:04;5.38;;;4.90;;
34896;SDS011;43407;51.828;-2.298;2023-04-24T07:39:30;4.90;;;4.40;;
34896;SDS011;43407;51.828;-2.298;2023-04-24T07:41:55;5.32;;;4.25;;
34896;SDS011;43407;51.828;-2.298;2023-04-24T07:44:21;5.05;;;4.60;;
34896;SDS011;43407;51.828;-2.298;2023-04-24T07:46:46;5.00;;;4.50;;
34896;SDS011;43407;51.828;-2.298;2023-04-24T07:49:12;6.07;;;5.47;;
34896;SDS011;43407;51.828;-2.298;2023-04-24T07:51:37;5.55;;;5.05;;
34896;SDS011;43407;51.828;-2.298;2023-04-24T07:54:04;6.38;;;5.63;;
34896;SDS011;43407;51.828;-2.298;2023-04-24T07:56:33;5.50;;;5.00;;
34896;SDS011;43407;51.828;-2.298;2023-04-24T07:58:58;5.00;;;4.50;;
34896;SDS011;43407;51.828;-2.298;2023-04-24T08:01:25;6.00;;;5.40;;
34896;SDS011;43407;51.828;-2.298;2023-04-24T08:03:50;6.18;;;4.90;;
34896;SDS011;43407;51.828;-2.298;2023-04-24T08:06:16;5.80;;;5.28;;
34896;SDS011;43407;51.828;-2.298;2023-04-24T08:08:42;5.22;;;4.72;;
34896;SDS011;43407;51.828;-2.298;2023-04-24T08:11:07;5.53;;;5.03;;
34896;SDS011;43407;51.828;-2.298;2023-04-24T08:13:33;4.65;;;4.25;;
34896;SDS011;43407;51.828;-2.298;2023-04-24T08:15:58;5.30;;;4.80;;
34896;SDS011;43407;51.828;-2.298;2023-04-24T08:18:24;5.35;;;4.68;;
34896;SDS011;43407;51.828;-2.298;2023-04-24T08:20:50;5.60;;;5.10;;
34896;SDS011;43407;51.828;-2.298;2023-04-24T08:23:15;7.15;;;5.97;;
34896;SDS011;43407;51.828;-2.298;2023-04-24T08:25:41;6.47;;;5.43;;
34896;SDS011;43407;51.828;-2.298;2023-04-24T08:28:07;8.73;;;5.50;;
34896;SDS011;43407;51.828;-2.298;2023-04-24T08:30:33;7.53;;;6.57;;
34896;SDS011;43407;51.828;-2.298;2023-04-24T08:32:59;8.75;;;6.28;;
34896;SDS011;43407;51.828;-2.298;2023-04-24T08:35:24;7.60;;;6.38;;
34896;SDS011;43407;51.828;-2.298;2023-04-24T08:37:51;8.02;;;6.88;;
34896;SDS011;43407;51.828;-2.298;2023-04-24T08:40:18;10.65;;;7.50;;
34896;SDS011;43407;51.828;-2.298;2023-04-24T08:42:48;9.57;;;6.57;;
34896;SDS011;43407;51.828;-2.298;2023-04-24T08:45:14;9.80;;;6.35;;
34896;SDS011;43407;51.828;-2.298;2023-04-24T08:47:41;10.40;;;6.28;;
34896;SDS011;43407;51.828;-2.298;2023-04-24T08:50:08;13.55;;;7.47;;
34896;SDS011;43407;51.828;-2.298;2023-04-24T08:52:35;12.05;;;7.53;;
34896;SDS011;43407;51.828;-2.298;2023-04-24T08:55:01;13.57;;;7.50;;
34896;SDS011;43407;51.828;-2.298;2023-04-24T08:57:27;10.88;;;6.90;;
34896;SDS011;43407;51.828;-2.298;2023-04-24T08:59:53;7.93;;;5.30;;
34896;SDS011;43407;51.828;-2.298;2023-04-24T09:02:20;10.77;;;4.97;;
34896;SDS011;43407;51.828;-2.298;2023-04-24T09:04:46;9.80;;;4.38;;
34896;SDS011;43407;51.828;-2.298;2023-04-24T09:07:12;7.78;;;4.43;;
34896;SDS011;43407;51.828;-2.298;2023-04-24T09:09:39;8.30;;;5.07;;
34896;SDS011;43407;51.828;-2.298;2023-04-24T09:12:06;6.63;;;4.03;;
34896;SDS011;43407;51.828;-2.298;2023-04-24T09:14:34;7.68;;;4.00;;
34896;SDS011;43407;51.828;-2.298;2023-04-24T09:17:01;4.40;;;4.00;;
34896;SDS011;43407;51.828;-2.298;2023-04-24T09:19:27;6.05;;;3.80;;
34896;SDS011;43407;51.828;-2.298;2023-04-24T09:21:53;5.10;;;3.90;;
34896;SDS011;43407;51.828;-2.298;2023-04-24T09:24:20;7.82;;;3.90;;
34896;SDS011;43407;51.828;-2.298;2023-04-24T09:26:47;9.77;;;4.70;;
34896;SDS011;43407;51.828;-2.298;2023-04-24T09:29:17;11.88;;;4.75;;
34896;SDS011;43407;51.828;-2.298;2023-04-24T09:31:43;6.88;;;5.13;;
34896;SDS011;43407;51.828;-2.298;2023-04-24T09:34:09;7.05;;;4.70;;
34896;SDS011;43407;51.828;-2.298;2023-04-24T09:36:36;11.40;;;5.05;;
34896;SDS011;43407;51.828;-2.298;2023-04-24T09:39:09;6.97;;;4.43;;
34896;SDS011;43407;51.828;-2.298;2023-04-24T09:41:53;7.38;;;4.75;;
34896;SDS011;43407;51.828;-2.298;2023-04-24T09:44:27;9.23;;;5.25;;
34896;SDS011;43407;51.828;-2.298;2023-04-24T09:46:56;8.43;;;4.90;;
34896;SDS011;43407;51.828;-2.298;2023-04-24T09:51:49;6.30;;;4.88;;
34896;SDS011;43407;51.828;-2.298;2023-04-24T09:54:16;8.52;;;5.43;;
34896;SDS011;43407;51.828;-2.298;2023-04-24T09:56:44;7.57;;;4.85;;
34896;SDS011;43407;51.828;-2.298;2023-04-24T09:59:10;8.07;;;5.07;;
34896;SDS011;43407;51.828;-2.298;2023-04-24T10:01:36;5.95;;;4.57;;
34896;SDS011;43407;51.828;-2.298;2023-04-24T10:04:03;4.45;;;3.85;;
34896;SDS011;43407;51.828;-2.298;2023-04-24T10:06:35;4.63;;;3.78;;
34896;SDS011;43407;51.828;-2.298;2023-04-24T10:09:02;9.43;;;4.22;;
34896;SDS011;43407;51.828;-2.298;2023-04-24T10:11:28;8.38;;;4.00;;
34896;SDS011;43407;51.828;-2.298;2023-04-24T10:13:55;5.80;;;4.10;;
34896;SDS011;43407;51.828;-2.298;2023-04-24T10:16:22;6.72;;;4.43;;
34896;SDS011;43407;51.828;-2.298;2023-04-24T10:18:48;10.75;;;4.22;;
34896;SDS011;43407;51.828;-2.298;2023-04-24T10:21:14;5.45;;;3.83;;
34896;SDS011;43407;51.828;-2.298;2023-04-24T10:23:40;12.73;;;5.72;;
34896;SDS011;43407;51.828;-2.298;2023-04-24T10:26:08;11.75;;;4.93;;
34896;SDS011;43407;51.828;-2.298;2023-04-24T10:28:35;8.50;;;5.30;;
34896;SDS011;43407;51.828;-2.298;2023-04-24T10:31:02;6.07;;;4.88;;
34896;SDS011;43407;51.828;-2.298;2023-04-24T10:33:28;7.88;;;4.65;;
34896;SDS011;43407;51.828;-2.298;2023-04-24T10:36:07;5.32;;;4.57;;
34896;SDS011;43407;51.828;-2.298;2023-04-24T10:38:34;8.10;;;4.47;;
34896;SDS011;43407;51.828;-2.298;2023-04-24T10:41:07;6.72;;;4.57;;
34896;SDS011;43407;51.828;-2.298;2023-04-24T10:43:34;7.90;;;5.10;;
34896;SDS011;43407;51.828;-2.298;2023-04-24T10:46:06;10.18;;;4.53;;
34896;SDS011;43407;51.828;-2.298;2023-04-24T10:48:35;7.43;;;4.32;;
34896;SDS011;43407;51.828;-2.298;2023-04-24T10:51:01;9.27;;;4.72;;
34896;SDS011;43407;51.828;-2.298;2023-04-24T10:53:28;8.25;;;4.63;;
34896;SDS011;43407;51.828;-2.298;2023-04-24T10:58:24;11.05;;;5.00;;
34896;SDS011;43407;51.828;-2.298;2023-04-24T11:01:00;8.88;;;4.60;;
34896;SDS011;43407;51.828;-2.298;2023-04-24T11:03:26;6.60;;;4.40;;
34896;SDS011;43407;51.828;-2.298;2023-04-24T11:06:01;6.35;;;3.85;;
34896;SDS011;43407;51.828;-2.298;2023-04-24T11:11:01;7.97;;;4.20;;
34896;SDS011;43407;51.828;-2.298;2023-04-24T11:14:00;5.53;;;3.97;;
34896;SDS011;43407;51.828;-2.298;2023-04-24T11:16:27;7.82;;;4.20;;
34896;SDS011;43407;51.828;-2.298;2023-04-24T11:21:43;7.32;;;4.00;;
34896;SDS011;43407;51.828;-2.298;2023-04-24T11:24:32;6.28;;;4.50;;
34896;SDS011;43407;51.828;-2.298;2023-04-24T11:27:20;7.07;;;4.47;;
34896;SDS011;43407;51.828;-2.298;2023-04-24T11:35:00;5.15;;;3.78;;
34896;SDS011;43407;51.828;-2.298;2023-04-24T11:37:35;4.45;;;3.92;;
34896;SDS011;43407;51.828;-2.298;2023-04-24T11:40:05;6.07;;;3.85;;
34896;SDS011;43407;51.828;-2.298;2023-04-24T11:42:36;4.68;;;4.03;;
34896;SDS011;43407;51.828;-2.298;2023-04-24T11:45:09;7.93;;;3.97;;
34896;SDS011;43407;51.828;-2.298;2023-04-24T11:47:36;5.05;;;3.58;;
34896;SDS011;43407;51.828;-2.298;2023-04-24T11:50:02;9.60;;;5.20;;
34896;SDS011;43407;51.828;-2.298;2023-04-24T11:52:33;11.95;;;4.70;;
34896;SDS011;43407;51.828;-2.298;2023-04-24T11:55:02;4.97;;;4.35;;
34896;SDS011;43407;51.828;-2.298;2023-04-24T11:57:29;8.45;;;3.85;;
34896;SDS011;43407;51.828;-2.298;2023-04-24T11:59:59;5.13;;;3.28;;
34896;SDS011;43407;51.828;-2.298;2023-04-24T12:02:29;4.60;;;3.58;;
34896;SDS011;43407;51.828;-2.298;2023-04-24T12:04:55;3.72;;;2.70;;
34896;SDS011;43407;51.828;-2.298;2023-04-24T12:07:21;8.93;;;3.33;;
34896;SDS011;43407;51.828;-2.298;2023-04-24T12:09:48;4.63;;;3.20;;
34896;SDS011;43407;51.828;-2.298;2023-04-24T12:12:20;3.20;;;2.65;;
34896;SDS011;43407;51.828;-2.298;2023-04-24T12:14:50;6.43;;;3.55;;
34896;SDS011;43407;51.828;-2.298;2023-04-24T12:20:03;3.30;;;2.70;;
34896;SDS011;43407;51.828;-2.298;2023-04-24T12:22:46;5.88;;;3.05;;
34896;SDS011;43407;51.828;-2.298;2023-04-24T12:25:14;5.03;;;2.95;;
34896;SDS011;43407;51.828;-2.298;2023-04-24T12:27:41;3.33;;;2.78;;
34896;SDS011;43407;51.828;-2.298;2023-04-24T12:30:10;3.70;;;2.63;;
34896;SDS011;43407;51.828;-2.298;2023-04-24T12:32:43;4.05;;;2.40;;
34896;SDS011;43407;51.828;-2.298;2023-04-24T12:35:10;4.63;;;3.35;;
34896;SDS011;43407;51.828;-2.298;2023-04-24T12:37:36;4.45;;;3.13;;
34896;SDS011;43407;51.828;-2.298;2023-04-24T12:40:03;5.88;;;3.17;;
34896;SDS011;43407;51.828;-2.298;2023-04-24T12:42:31;4.55;;;3.33;;
34896;SDS011;43407;51.828;-2.298;2023-04-24T12:45:00;4.85;;;3.30;;
34896;SDS011;43407;51.828;-2.298;2023-04-24T12:47:28;5.60;;;3.38;;
34896;SDS011;43407;51.828;-2.298;2023-04-24T12:49:54;4.38;;;3.20;;
34896;SDS011;43407;51.828;-2.298;2023-04-24T12:52:23;4.95;;;3.28;;
34896;SDS011;43407;51.828;-2.298;2023-04-24T12:54:52;5.30;;;3.40;;
34896;SDS011;43407;51.828;-2.298;2023-04-24T12:57:18;7.00;;;3.58;;
34896;SDS011;43407;51.828;-2.298;2023-04-24T12:59:44;7.07;;;3.70;;
34896;SDS011;43407;51.828;-2.298;2023-04-24T13:02:10;7.25;;;4.18;;
34896;SDS011;43407;51.828;-2.298;2023-04-24T13:04:36;5.43;;;4.40;;
34896;SDS011;43407;51.828;-2.298;2023-04-24T13:07:01;8.88;;;4.30;;
34896;SDS011;43407;51.828;-2.298;2023-04-24T13:09:27;6.18;;;4.25;;
34896;SDS011;43407;51.828;-2.298;2023-04-24T13:11:53;7.25;;;4.18;;
34896;SDS011;43407;51.828;-2.298;2023-04-24T13:14:19;5.32;;;4.00;;
34896;SDS011;43407;51.828;-2.298;2023-04-24T13:16:45;5.80;;;4.00;;
34896;SDS011;43407;51.828;-2.298;2023-04-24T13:19:10;5.05;;;3.45;;
34896;SDS011;43407;51.828;-2.298;2023-04-24T13:21:36;5.00;;;2.90;;
34896;SDS011;43407;51.828;-2.298;2023-04-24T13:24:01;3.22;;;2.92;;
34896;SDS011;43407;51.828;-2.298;2023-04-24T13:26:28;2.20;;;2.00;;
34896;SDS011;43407;51.828;-2.298;2023-04-24T13:28:54;2.80;;;2.17;;
34896;SDS011;43407;51.828;-2.298;2023-04-24T13:31:19;3.08;;;2.13;;
34896;SDS011;43407;51.828;-2.298;2023-04-24T13:33:45;2.65;;;2.15;;
34896;SDS011;43407;51.828;-2.298;2023-04-24T13:36:12;2.33;;;1.90;;
34896;SDS011;43407;51.828;-2.298;2023-04-24T13:38:37;1.95;;;1.67;;
34896;SDS011;43407;51.828;-2.298;2023-04-24T13:41:02;1.83;;;1.73;;
34896;SDS011;43407;51.828;-2.298;2023-04-24T13:43:28;1.70;;;1.60;;
34896;SDS011;43407;51.828;-2.298;2023-04-24T13:45:54;2.55;;;1.80;;
34896;SDS011;43407;51.828;-2.298;2023-04-24T13:48:19;2.60;;;2.38;;
34896;SDS011;43407;51.828;-2.298;2023-04-24T13:50:46;2.15;;;1.95;;
34896;SDS011;43407;51.828;-2.298;2023-04-24T13:53:13;2.60;;;2.00;;
34896;SDS011;43407;51.828;-2.298;2023-04-24T13:55:39;2.92;;;2.40;;
34896;SDS011;43407;51.828;-2.298;2023-04-24T13:58:05;4.38;;;3.00;;
34896;SDS011;43407;51.828;-2.298;2023-04-24T14:00:31;3.42;;;3.13;;
34896;SDS011;43407;51.828;-2.298;2023-04-24T14:02:57;4.38;;;3.28;;
34896;SDS011;43407;51.828;-2.298;2023-04-24T14:05:22;3.85;;;3.28;;
34896;SDS011;43407;51.828;-2.298;2023-04-24T14:07:48;3.45;;;3.15;;
34896;SDS011;43407;51.828;-2.298;2023-04-24T14:10:14;5.15;;;3.38;;
34896;SDS011;43407;51.828;-2.298;2023-04-24T14:12:39;4.75;;;2.83;;
34896;SDS011;43407;51.828;-2.298;2023-04-24T14:15:05;3.95;;;3.00;;
34896;SDS011;43407;51.828;-2.298;2023-04-24T14:17:31;3.35;;;2.78;;
34896;SDS011;43407;51.828;-2.298;2023-04-24T14:19:56;6.22;;;3.70;;
34896;SDS011;43407;51.828;-2.298;2023-04-24T14:22:24;4.97;;;3.60;;
34896;SDS011;43407;51.828;-2.298;2023-04-24T14:24:50;3.97;;;2.78;;
34896;SDS011;43407;51.828;-2.298;2023-04-24T14:27:16;5.03;;;3.42;;
34896;SDS011;43407;51.828;-2.298;2023-04-24T14:29:41;4.00;;;2.65;;
34896;SDS011;43407;51.828;-2.298;2023-04-24T14:32:07;4.30;;;2.97;;
34896;SDS011;43407;51.828;-2.298;2023-04-24T14:34:34;5.00;;;2.95;;
34896;SDS011;43407;51.828;-2.298;2023-04-24T14:36:59;3.45;;;2.88;;
34896;SDS011;43407;51.828;-2.298;2023-04-24T14:39:25;4.63;;;2.95;;
34896;SDS011;43407;51.828;-2.298;2023-04-24T14:41:50;3.33;;;2.60;;
34896;SDS011;43407;51.828;-2.298;2023-04-24T14:44:16;2.95;;;2.45;;
34896;SDS011;43407;51.828;-2.298;2023-04-24T14:46:42;3.90;;;2.63;;
34896;SDS011;43407;51.828;-2.298;2023-04-24T14:49:08;3.90;;;2.40;;